createdAt,value
2019-02-07T00:01:58.869Z,60.48
2019-02-07T00:04:29.534Z,60.32
2019-02-07T00:07:01.040Z,60.22
2019-02-07T00:09:30.890Z,60.08
2019-02-07T00:12:01.872Z,60.11
2019-02-07T00:14:39.505Z,59.61
2019-02-07T00:17:02.797Z,59.71
2019-02-07T00:19:33.031Z,59.56
2019-02-07T00:22:02.607Z,59.64
2019-02-07T00:24:42.276Z,60.04
2019-02-07T00:27:03.305Z,59.99
2019-02-07T00:29:33.221Z,60.16
2019-02-07T00:32:03.228Z,60.08
2019-02-07T00:34:32.937Z,60.11
2019-02-07T00:37:05.889Z,59.72
2019-02-07T00:39:35.321Z,59.97
2019-02-07T00:42:04.894Z,59.40
2019-02-07T00:44:34.382Z,59.58
2019-02-07T00:47:05.529Z,59.60
2019-02-07T00:49:36.562Z,60.08
2019-02-07T00:52:05.991Z,59.66
2019-02-07T00:54:35.420Z,59.80
2019-02-07T00:57:07.866Z,60.14
2019-02-07T00:59:37.412Z,60.73
2019-02-07T01:02:07.594Z,60.86
2019-02-07T01:04:40.808Z,60.37
2019-02-07T01:07:11.874Z,60.29
2019-02-07T01:09:41.625Z,60.85
2019-02-07T01:12:11.128Z,61.26
2019-02-07T01:14:40.605Z,61.13
2019-02-07T01:17:11.157Z,60.33
2019-02-07T01:19:42.672Z,60.91
2019-02-07T01:22:13.517Z,60.61
2019-02-07T01:24:42.960Z,60.15
2019-02-07T01:27:12.529Z,60.47
2019-02-07T01:29:42.014Z,60.25
2019-02-07T01:32:11.897Z,60.86
2019-02-07T01:34:41.380Z,60.43
2019-02-07T01:37:10.886Z,59.76
2019-02-07T01:39:40.372Z,60.22
2019-02-07T01:42:09.872Z,60.57
2019-02-07T01:44:39.467Z,60.47
2019-02-07T01:47:09.182Z,60.33
2019-02-07T01:49:38.606Z,60.58
2019-02-07T01:52:09.829Z,60.34
2019-02-07T01:54:39.377Z,60.19
2019-02-07T01:57:08.828Z,60.01
2019-02-07T01:59:38.309Z,59.90
2019-02-07T02:02:07.940Z,60.10
2019-02-07T02:04:37.899Z,60.33
2019-02-07T02:07:08.589Z,60.32
2019-02-07T02:09:37.984Z,59.95
2019-02-07T02:12:07.717Z,59.78
2019-02-07T02:14:38.822Z,60.11
2019-02-07T02:17:08.391Z,59.46
2019-02-07T02:19:38.154Z,59.48
2019-02-07T02:22:08.308Z,59.18
2019-02-07T02:24:40.780Z,58.45
2019-02-07T02:27:10.227Z,59.05
2019-02-07T02:29:40.017Z,58.36
2019-02-07T02:32:09.599Z,58.66
2019-02-07T02:34:39.757Z,58.37
2019-02-07T02:37:12.150Z,58.19
2019-02-07T02:39:42.305Z,58.15
2019-02-07T02:42:11.811Z,58.02
2019-02-07T02:44:43.938Z,58.01
2019-02-07T02:47:16.086Z,57.91
2019-02-07T02:49:45.564Z,57.61
2019-02-07T02:52:15.009Z,57.94
2019-02-07T02:54:48.745Z,58.24
2019-02-07T02:57:18.253Z,57.69
2019-02-07T02:59:48.596Z,57.43
2019-02-07T03:02:22.745Z,56.92
2019-02-07T03:04:53.809Z,57.16
2019-02-07T03:07:40.097Z,57.60
2019-02-07T03:10:25.022Z,57.54
2019-02-07T03:12:59.203Z,57.43
2019-02-07T03:15:49.561Z,57.21
2019-02-07T03:18:22.114Z,57.12
2019-02-07T03:21:17.503Z,58.03
2019-02-07T03:23:51.047Z,57.27
2019-02-07T03:26:24.911Z,56.68
2019-02-07T03:28:56.078Z,56.63
2019-02-07T03:31:27.200Z,56.85
2019-02-07T03:34:00.917Z,56.41
2019-02-07T03:36:52.237Z,57.00
2019-02-07T03:39:23.001Z,57.25
2019-02-07T03:42:00.025Z,57.53
2019-02-07T03:44:40.340Z,58.13
2019-02-07T03:47:14.410Z,57.56
2019-02-07T03:49:58.282Z,57.32
2019-02-07T03:52:42.993Z,56.80
2019-02-07T03:55:19.012Z,57.42
2019-02-07T03:57:51.642Z,57.83
2019-02-07T04:00:41.564Z,57.57
2019-02-07T04:03:28.973Z,57.52
2019-02-07T04:06:18.196Z,57.82
2019-02-07T04:08:52.337Z,57.60
2019-02-07T04:11:30.078Z,57.97
2019-02-07T04:14:07.113Z,57.14
2019-02-07T04:16:48.124Z,57.54
2019-02-07T04:19:35.724Z,57.57
2019-02-07T04:22:19.231Z,57.44
2019-02-07T04:24:51.914Z,57.03
2019-02-07T04:27:39.653Z,56.69
2019-02-07T04:30:28.205Z,57.08
2019-02-07T04:33:06.020Z,56.92
2019-02-07T04:35:37.051Z,57.72
2019-02-07T04:38:15.767Z,57.57
2019-02-07T04:40:58.853Z,57.73
2019-02-07T04:43:32.729Z,57.96
2019-02-07T04:46:27.018Z,57.44
2019-02-07T04:48:57.872Z,57.71
2019-02-07T04:51:29.032Z,57.92
2019-02-07T04:54:20.450Z,58.13
2019-02-07T04:56:57.515Z,58.15
2019-02-07T04:59:40.728Z,57.96
2019-02-07T05:02:28.199Z,57.98
2019-02-07T05:05:14.606Z,58.34
2019-02-07T05:07:53.808Z,58.11
2019-02-07T05:10:42.787Z,58.17
2019-02-07T05:13:29.884Z,58.63
2019-02-07T05:16:10.370Z,58.60
2019-02-07T05:18:57.643Z,58.39
2019-02-07T05:21:28.851Z,58.30
2019-02-07T05:24:08.813Z,57.82
2019-02-07T05:26:39.953Z,57.97
2019-02-07T05:29:11.301Z,58.16
2019-02-07T05:31:58.319Z,58.19
2019-02-07T05:37:44.745Z,57.86
2019-02-07T05:40:16.563Z,57.74
2019-02-07T05:43:04.275Z,57.62
2019-02-07T05:45:51.719Z,57.61
2019-02-07T05:48:25.733Z,57.80
2019-02-07T05:51:05.858Z,57.52
2019-02-07T05:53:45.948Z,57.56
2019-02-07T05:56:17.320Z,57.33
2019-02-07T05:59:04.588Z,57.49
2019-02-07T06:01:51.701Z,57.33
2019-02-07T06:04:25.816Z,57.83
2019-02-07T06:07:09.012Z,57.66
2019-02-07T06:09:49.166Z,57.48
2019-02-07T06:12:20.331Z,57.02
2019-02-07T06:15:00.912Z,57.54
2019-02-07T06:17:35.094Z,57.25
2019-02-07T06:20:09.109Z,57.19
2019-02-07T06:22:40.232Z,57.29
2019-02-07T06:25:27.991Z,56.81
2019-02-07T06:28:11.352Z,56.22
2019-02-07T06:30:42.477Z,56.50
2019-02-07T06:33:22.331Z,56.80
2019-02-07T06:35:57.694Z,56.92
2019-02-07T06:38:31.440Z,56.61
2019-02-07T06:41:05.530Z,57.08
2019-02-07T06:43:52.030Z,57.37
2019-02-07T06:46:32.883Z,57.53
2019-02-07T06:49:09.410Z,57.51
2019-02-07T06:51:43.297Z,57.30
2019-02-07T06:54:17.327Z,57.43
2019-02-07T06:56:54.438Z,57.39
2019-02-07T06:59:25.905Z,57.08
2019-02-07T07:01:57.112Z,57.28
2019-02-07T07:04:40.250Z,57.01
2019-02-07T07:07:11.297Z,58.19
2019-02-07T07:09:58.661Z,57.87
2019-02-07T07:12:32.668Z,57.61
2019-02-07T07:15:03.774Z,57.30
2019-02-07T07:17:34.839Z,57.50
2019-02-07T07:20:11.176Z,57.38
2019-02-07T07:22:44.951Z,57.67
2019-02-07T07:25:21.992Z,57.01
2019-02-07T07:28:10.595Z,56.98
2019-02-07T07:30:47.265Z,57.35
2019-02-07T07:33:21.011Z,57.76
2019-02-07T07:35:52.107Z,57.31
2019-02-07T07:38:39.669Z,57.30
2019-02-07T07:41:13.649Z,57.02
2019-02-07T07:43:53.583Z,57.25
2019-02-07T07:46:39.865Z,57.29
2019-02-07T07:49:11.076Z,57.43
2019-02-07T07:51:45.008Z,57.27
2019-02-07T07:54:28.443Z,57.35
2019-02-07T07:57:02.045Z,57.66
2019-02-07T07:59:49.630Z,59.21
2019-02-07T08:02:36.879Z,58.86
2019-02-07T08:05:18.340Z,58.78
2019-02-07T08:07:51.018Z,58.30
2019-02-07T08:10:38.278Z,58.84
2019-02-07T08:13:24.801Z,59.46
2019-02-07T08:15:58.888Z,61.83
2019-02-07T08:18:33.041Z,65.63
2019-02-07T08:21:20.570Z,67.32
2019-02-07T08:23:54.626Z,68.05
2019-02-07T08:26:42.206Z,67.99
2019-02-07T08:29:22.385Z,67.92
2019-02-07T08:31:53.438Z,68.55
2019-02-07T08:34:41.352Z,68.09
2019-02-07T08:37:21.750Z,68.98
2019-02-07T08:39:53.058Z,69.68
2019-02-07T08:42:30.187Z,70.91
2019-02-07T08:45:08.043Z,70.27
2019-02-07T08:47:45.434Z,70.17
2019-02-07T08:50:16.856Z,70.70
2019-02-07T08:53:05.513Z,70.45
2019-02-07T08:55:45.118Z,70.03
2019-02-07T08:58:19.198Z,68.67
2019-02-07T09:01:02.506Z,68.30
2019-02-07T09:03:33.612Z,66.84
2019-02-07T09:06:04.769Z,67.79
2019-02-07T09:08:35.899Z,66.47
2019-02-07T09:11:23.440Z,65.84
2019-02-07T09:14:10.849Z,64.06
2019-02-07T09:16:51.057Z,64.94
2019-02-07T09:19:22.399Z,64.43
2019-02-07T09:22:05.312Z,64.85
2019-02-07T09:24:52.477Z,64.08
2019-02-07T09:27:36.103Z,64.71
2019-02-07T09:30:15.905Z,64.56
2019-02-07T09:32:56.018Z,64.34
2019-02-07T09:35:30.013Z,64.68
2019-02-07T09:38:01.101Z,63.97
2019-02-07T09:40:48.480Z,63.90
2019-02-07T09:43:19.649Z,64.17
2019-02-07T09:45:55.061Z,63.71
2019-02-07T09:48:45.639Z,63.85
2019-02-07T09:51:28.633Z,62.97
2019-02-07T09:54:05.751Z,64.23
2019-02-07T09:56:48.932Z,64.69
2019-02-07T09:59:29.327Z,63.62
2019-02-07T10:02:09.203Z,64.38
2019-02-07T10:04:43.122Z,64.68
2019-02-07T10:07:22.969Z,64.36
2019-02-07T10:10:08.981Z,63.84
2019-02-07T10:12:45.862Z,64.50
2019-02-07T10:15:26.075Z,64.93
2019-02-07T10:17:57.363Z,65.59
2019-02-07T10:20:31.283Z,65.82
2019-02-07T10:23:17.433Z,65.80
2019-02-07T10:25:51.579Z,65.90
2019-02-07T10:28:39.122Z,65.86
2019-02-07T10:31:26.743Z,66.55
2019-02-07T10:33:58.077Z,66.60
2019-02-07T10:36:38.443Z,67.13
2019-02-07T10:39:15.106Z,66.86
2019-02-07T10:42:02.323Z,67.34
2019-02-07T10:44:40.349Z,67.06
2019-02-07T10:47:11.645Z,67.07
2019-02-07T10:49:59.004Z,67.59
2019-02-07T10:52:27.569Z,68.58
2019-02-07T10:55:01.675Z,68.94
2019-02-07T10:57:46.506Z,70.10
2019-02-07T11:00:23.124Z,70.59
2019-02-07T11:03:00.919Z,71.28
2019-02-07T11:05:43.787Z,70.85
2019-02-07T11:08:18.094Z,71.37
2019-02-07T11:11:05.630Z,71.56
2019-02-07T11:13:36.866Z,71.53
2019-02-07T11:16:24.381Z,71.94
2019-02-07T11:19:04.550Z,71.73
2019-02-07T11:21:35.815Z,71.99
2019-02-07T11:24:16.935Z,71.93
2019-02-07T11:27:04.680Z,71.81
2019-02-07T11:29:38.744Z,72.61
2019-02-07T11:32:28.131Z,72.51
2019-02-07T11:35:08.123Z,72.50
2019-02-07T11:37:39.343Z,72.62
2019-02-07T11:40:19.664Z,72.40
2019-02-07T11:42:59.874Z,72.89
2019-02-07T11:45:36.899Z,73.37
2019-02-07T11:48:26.208Z,72.97
2019-02-07T11:51:00.167Z,73.05
2019-02-07T11:53:33.909Z,72.87
2019-02-07T11:56:13.851Z,72.71
2019-02-07T11:59:01.401Z,72.82
2019-02-07T12:01:49.000Z,72.89
2019-02-07T12:04:26.216Z,73.00
2019-02-07T12:06:57.756Z,72.61
2019-02-07T12:09:47.349Z,72.22
2019-02-07T12:12:27.647Z,71.85
2019-02-07T12:15:15.052Z,72.00
2019-02-07T12:17:55.591Z,72.12
2019-02-07T12:20:39.102Z,72.53
2019-02-07T12:23:15.960Z,72.82
2019-02-07T12:25:47.184Z,71.94
2019-02-07T12:28:21.046Z,72.35
2019-02-07T12:30:52.115Z,72.05
2019-02-07T12:33:23.261Z,71.65
2019-02-07T12:35:59.944Z,71.83
2019-02-07T12:38:30.999Z,71.62
2019-02-07T12:41:11.075Z,71.01
2019-02-07T12:44:00.467Z,71.53
2019-02-07T12:46:37.805Z,71.38
2019-02-07T12:49:28.956Z,71.09
2019-02-07T12:51:56.614Z,71.09
2019-02-07T12:54:30.145Z,71.16
2019-02-07T12:57:03.180Z,70.60
2019-02-07T12:59:34.794Z,70.73
2019-02-07T13:02:23.613Z,69.80
2019-02-07T13:05:12.991Z,70.05
2019-02-07T13:07:45.374Z,70.45
2019-02-07T13:10:20.100Z,69.71
2019-02-07T13:13:07.896Z,69.79
2019-02-07T13:15:58.522Z,69.78
2019-02-07T13:18:29.737Z,69.59
2019-02-07T13:21:15.838Z,69.74
2019-02-07T13:24:05.062Z,69.48
2019-02-07T13:26:39.298Z,69.31
2019-02-07T13:29:27.169Z,68.93
2019-02-07T13:32:03.837Z,69.03
2019-02-07T13:34:52.546Z,68.65
2019-02-07T13:37:40.260Z,68.82
2019-02-07T13:40:31.414Z,68.25
2019-02-07T13:43:11.446Z,68.51
2019-02-07T13:45:51.719Z,68.72
2019-02-07T13:48:28.851Z,68.42
2019-02-07T13:51:02.689Z,68.24
2019-02-07T13:53:33.768Z,68.32
2019-02-07T13:56:16.830Z,67.99
2019-02-07T13:58:56.969Z,68.31
2019-02-07T14:01:45.073Z,68.33
2019-02-07T14:04:16.221Z,68.04
2019-02-07T14:07:05.673Z,67.67
2019-02-07T14:09:54.900Z,67.70
2019-02-07T14:12:34.775Z,67.70
2019-02-07T14:15:14.529Z,67.73
2019-02-07T14:18:00.787Z,67.62
2019-02-07T14:20:34.969Z,67.67
2019-02-07T14:23:22.638Z,68.11
2019-02-07T14:25:56.407Z,68.18
2019-02-07T14:28:27.478Z,68.55
2019-02-07T14:31:01.252Z,68.78
2019-02-07T14:33:48.988Z,68.61
2019-02-07T14:36:23.075Z,68.48
2019-02-07T14:39:12.258Z,68.56
2019-02-07T14:44:24.839Z,68.83
2019-02-07T14:46:54.365Z,68.83
2019-02-07T14:49:23.788Z,69.00
2019-02-07T14:51:53.603Z,68.33
2019-02-07T14:54:23.109Z,67.84
2019-02-07T14:56:52.591Z,67.87
2019-02-07T14:59:22.245Z,67.55
2019-02-07T15:01:51.675Z,67.36
2019-02-07T15:04:21.187Z,67.41
2019-02-07T15:06:50.971Z,67.30
2019-02-07T15:09:20.940Z,67.32
2019-02-07T15:11:50.502Z,67.46
2019-02-07T15:14:20.019Z,67.72
2019-02-07T15:16:49.523Z,68.03
2019-02-07T15:19:18.957Z,68.13
2019-02-07T15:21:48.806Z,68.17
2019-02-07T15:24:18.444Z,68.15
2019-02-07T15:26:47.872Z,68.44
2019-02-07T15:29:17.379Z,68.54
2019-02-07T15:31:46.946Z,68.23
2019-02-07T15:34:16.399Z,68.38
2019-02-07T15:36:46.271Z,68.06
2019-02-07T15:39:16.833Z,68.32
2019-02-07T15:41:46.884Z,68.46
2019-02-07T15:44:16.672Z,68.38
2019-02-07T15:46:47.177Z,68.78
2019-02-07T15:49:16.788Z,68.99
2019-02-07T15:51:47.918Z,68.78
2019-02-07T15:54:17.426Z,69.14
2019-02-07T15:56:46.937Z,69.35
2019-02-07T15:59:24.125Z,69.26
2019-02-07T16:01:55.266Z,69.45
2019-02-07T16:04:26.533Z,69.24
2019-02-07T16:06:58.904Z,69.51
2019-02-07T16:09:28.433Z,69.68
2019-02-07T16:11:57.868Z,69.71
2019-02-07T16:14:27.508Z,69.63
2019-02-07T16:16:57.006Z,70.18
2019-02-07T16:19:26.595Z,70.48
2019-02-07T16:21:56.092Z,70.25
2019-02-07T16:24:25.714Z,70.47
2019-02-07T16:26:56.776Z,70.61
2019-02-07T16:29:27.970Z,70.69
2019-02-07T16:31:58.122Z,70.64
2019-02-07T16:34:27.810Z,70.60
2019-02-07T16:36:57.316Z,70.84
2019-02-07T16:39:27.074Z,70.86
2019-02-07T16:42:05.774Z,71.17
2019-02-07T16:44:28.072Z,71.08
2019-02-07T16:46:57.523Z,71.25
2019-02-07T16:49:27.237Z,71.37
2019-02-07T16:51:56.709Z,70.95
2019-02-07T16:54:27.996Z,70.98
2019-02-07T16:56:57.415Z,70.69
2019-02-07T16:59:26.878Z,70.71
2019-02-07T17:01:56.385Z,71.00
2019-02-07T17:04:25.825Z,71.13
2019-02-07T17:06:55.328Z,71.67
2019-02-07T17:09:26.709Z,72.03
2019-02-07T17:11:56.275Z,72.59
2019-02-07T17:14:26.189Z,72.97
2019-02-07T17:16:55.705Z,73.15
2019-02-07T17:19:25.255Z,73.35
2019-02-07T17:21:54.852Z,73.48
2019-02-07T17:24:24.317Z,73.92
2019-02-07T17:26:53.841Z,74.61
2019-02-07T17:29:23.804Z,73.83
2019-02-07T17:31:53.301Z,74.09
2019-02-07T17:34:22.816Z,74.51
2019-02-07T17:36:52.306Z,74.87
2019-02-07T17:39:22.163Z,74.87
2019-02-07T17:41:51.659Z,74.96
2019-02-07T17:44:21.720Z,75.12
2019-02-07T17:46:51.159Z,75.33
2019-02-07T17:49:23.419Z,75.42
2019-02-07T17:51:52.924Z,75.57
2019-02-07T17:54:22.416Z,75.77
2019-02-07T17:56:52.093Z,75.63
2019-02-07T17:59:21.849Z,76.09
2019-02-07T18:01:51.499Z,75.96
2019-02-07T18:04:20.919Z,76.09
2019-02-07T18:06:50.498Z,76.19
2019-02-07T18:09:19.984Z,76.48
2019-02-07T18:11:52.516Z,76.53
2019-02-07T18:14:22.013Z,76.59
2019-02-07T18:16:51.457Z,76.65
2019-02-07T18:19:20.939Z,76.91
2019-02-07T18:21:51.134Z,76.94
2019-02-07T18:24:20.564Z,76.97
2019-02-07T18:26:50.012Z,77.21
2019-02-07T18:29:19.463Z,77.47
2019-02-07T18:31:49.056Z,77.56
2019-02-07T18:34:18.568Z,77.76
2019-02-07T18:36:48.036Z,77.65
2019-02-07T18:39:17.524Z,77.98
2019-02-07T18:41:46.956Z,77.92
2019-02-07T18:44:16.450Z,78.20
2019-02-07T18:46:45.960Z,78.16
2019-02-07T18:49:15.448Z,78.48
2019-02-07T18:51:45.984Z,78.57
2019-02-07T18:54:15.468Z,78.38
2019-02-07T18:56:44.975Z,78.46
2019-02-07T18:59:14.399Z,78.62
2019-02-07T19:01:43.923Z,78.76
2019-02-07T19:04:13.430Z,78.82
2019-02-07T19:06:43.036Z,79.01
2019-02-07T19:09:12.526Z,79.28
2019-02-07T19:11:41.979Z,79.11
2019-02-07T19:14:11.815Z,79.25
2019-02-07T19:16:41.277Z,79.14
2019-02-07T19:19:10.886Z,79.03
2019-02-07T19:21:40.361Z,79.07
2019-02-07T19:24:09.858Z,79.08
2019-02-07T19:26:39.363Z,78.64
2019-02-07T19:29:09.476Z,78.79
2019-02-07T19:31:38.935Z,78.92
2019-02-07T19:34:08.570Z,78.88
2019-02-07T19:36:38.158Z,78.92
2019-02-07T19:39:09.303Z,78.82
2019-02-07T19:41:42.193Z,78.85
2019-02-07T19:44:11.855Z,78.66
2019-02-07T19:46:41.441Z,78.46
2019-02-07T19:49:10.941Z,78.55
2019-02-07T19:51:40.455Z,78.20
2019-02-07T19:54:09.947Z,77.80
2019-02-07T19:56:42.815Z,77.30
2019-02-07T19:59:12.314Z,77.01
2019-02-07T20:01:41.913Z,76.69
2019-02-07T20:04:11.571Z,76.38
2019-02-07T20:06:41.546Z,75.90
2019-02-07T20:09:12.734Z,75.65
2019-02-07T20:11:42.906Z,75.82
2019-02-07T20:14:12.675Z,75.65
2019-02-07T20:16:42.463Z,75.98
2019-02-07T20:19:11.991Z,75.96
2019-02-07T20:21:41.495Z,75.99
2019-02-07T20:24:11.059Z,76.02
2019-02-07T20:26:40.550Z,76.09
2019-02-07T20:29:10.322Z,75.99
2019-02-07T20:31:39.877Z,76.18
2019-02-07T20:34:09.517Z,76.24
2019-02-07T20:36:39.174Z,76.42
2019-02-07T20:39:09.032Z,76.40
2019-02-07T20:41:39.302Z,76.54
2019-02-07T20:44:08.884Z,76.50
2019-02-07T20:46:38.377Z,76.74
2019-02-07T20:49:07.828Z,76.63
2019-02-07T20:51:37.240Z,76.86
2019-02-07T20:54:07.955Z,76.94
2019-02-07T20:56:37.524Z,77.20
2019-02-07T20:59:08.104Z,77.29
2019-02-07T21:01:37.780Z,77.25
2019-02-07T21:04:07.351Z,77.42
2019-02-07T21:06:36.836Z,77.47
2019-02-07T21:09:07.778Z,77.19
2019-02-07T21:11:37.664Z,77.03
2019-02-07T21:14:07.162Z,77.11
2019-02-07T21:16:36.862Z,76.70
2019-02-07T21:19:06.441Z,76.58
2019-02-07T21:21:36.815Z,76.49
2019-02-07T21:24:06.661Z,76.25
2019-02-07T21:26:36.148Z,76.28
2019-02-07T21:29:05.810Z,75.96
2019-02-07T21:31:35.548Z,75.78
2019-02-07T21:34:05.584Z,75.75
2019-02-07T21:36:35.074Z,75.40
2019-02-07T21:39:07.575Z,75.21
2019-02-07T21:41:37.523Z,74.91
2019-02-07T21:44:07.174Z,74.83
2019-02-07T21:46:36.664Z,74.81
2019-02-07T21:49:06.311Z,75.00
2019-02-07T21:51:35.821Z,74.94
2019-02-07T21:54:05.440Z,74.21
2019-02-07T21:56:34.931Z,74.06
2019-02-07T21:59:04.598Z,73.93
2019-02-07T22:01:34.150Z,73.77
2019-02-07T22:04:04.007Z,73.62
2019-02-07T22:06:33.693Z,73.57
2019-02-07T22:09:04.973Z,73.36
2019-02-07T22:11:34.962Z,73.24
2019-02-07T22:14:04.605Z,73.40
2019-02-07T22:16:34.109Z,73.46
2019-02-07T22:19:03.680Z,73.22
2019-02-07T22:21:33.165Z,73.01
2019-02-07T22:24:02.722Z,72.77
2019-02-07T22:26:32.224Z,72.60
2019-02-07T22:29:01.632Z,72.38
2019-02-07T22:31:31.127Z,72.11
2019-02-07T22:34:00.623Z,71.98
2019-02-07T22:36:30.057Z,72.04
2019-02-07T22:38:59.479Z,71.50
2019-02-07T22:41:28.967Z,71.70
2019-02-07T22:43:58.439Z,71.71
2019-02-07T22:46:27.873Z,72.06
2019-02-07T22:48:57.281Z,71.91
2019-02-07T22:51:26.707Z,72.21
2019-02-07T22:53:56.143Z,72.40
2019-02-07T22:56:25.568Z,72.44
2019-02-07T22:58:54.985Z,72.70
2019-02-07T23:01:26.521Z,72.74
2019-02-07T23:03:56.143Z,72.92
2019-02-07T23:06:25.705Z,72.92
2019-02-07T23:09:13.601Z,73.26
2019-02-07T23:11:39.195Z,73.52
2019-02-07T23:15:00.559Z,74.03
2019-02-07T23:17:36.506Z,74.25
2019-02-07T23:20:09.359Z,74.58
2019-02-07T23:22:39.024Z,75.03
2019-02-07T23:25:10.056Z,75.29
2019-02-07T23:27:40.356Z,75.55
2019-02-07T23:30:14.460Z,75.71
2019-02-07T23:32:44.007Z,75.93
2019-02-07T23:35:14.046Z,76.20
2019-02-07T23:37:46.678Z,76.25
2019-02-07T23:40:18.058Z,76.29
2019-02-07T23:42:47.711Z,76.63
2019-02-07T23:45:24.424Z,76.76
2019-02-07T23:47:53.834Z,77.37
2019-02-07T23:50:23.405Z,77.83
2019-02-07T23:52:52.938Z,78.41
2019-02-07T23:55:23.060Z,78.86
2019-02-07T23:57:52.461Z,79.25
